Millbrook, Alabama
Current Conditions -  °F | °C
As of 1:58 AM on Monday 22 Dec 2014 (Local Time) from KMXF Reporting Station
Overcast Overcast  
Wind Chill: 51°   Ceiling: 600
Heat Index: 51°   Visibility: 10mi
Dew Point: 50°   Wind: 6mph
Humidity: 96%   Direction: 90°E
Pressure: 29.99"   Gusts: NA
Location:  32.48°N, 86.36°W
Report Text: KMXF 220758Z AUTO 09005KT 10SM OVC006 11/10 A2999 RMK AO2 SLP158 T01080102
Loading
Personal Weather Stations






























Interactive Weather Map New forecast layout! Learn more

10-Day Weather Forecast

Advertisements
Track Severe Weather on mobile